sensor_id;sensor_type;location;lat;lon;timestamp;temperature;humidity
37678;DHT22;23517;50.390;8.616;2023-05-07T00:01:33;14.20;66.30
37678;DHT22;23517;50.390;8.616;2023-05-07T00:04:00;14.20;66.40
37678;DHT22;23517;50.390;8.616;2023-05-07T00:06:27;14.20;66.30
37678;DHT22;23517;50.390;8.616;2023-05-07T00:08:56;14.20;67.10
37678;DHT22;23517;50.390;8.616;2023-05-07T00:11:23;14.10;67.10
37678;DHT22;23517;50.390;8.616;2023-05-07T00:13:51;14.10;67.30
37678;DHT22;23517;50.390;8.616;2023-05-07T00:16:17;14.10;66.90
37678;DHT22;23517;50.390;8.616;2023-05-07T00:18:44;14.00;67.80
37678;DHT22;23517;50.390;8.616;2023-05-07T00:21:11;14.00;68.20
37678;DHT22;23517;50.390;8.616;2023-05-07T00:23:38;14.00;68.60
37678;DHT22;23517;50.390;8.616;2023-05-07T00:26:05;14.00;69.30
37678;DHT22;23517;50.390;8.616;2023-05-07T00:28:31;13.90;69.60
37678;DHT22;23517;50.390;8.616;2023-05-07T00:30:58;13.90;70.20
37678;DHT22;23517;50.390;8.616;2023-05-07T00:33:24;13.90;72.00
37678;DHT22;23517;50.390;8.616;2023-05-07T00:35:53;13.90;70.80
37678;DHT22;23517;50.390;8.616;2023-05-07T00:38:20;13.80;72.00
37678;DHT22;23517;50.390;8.616;2023-05-07T00:40:47;13.80;72.50
37678;DHT22;23517;50.390;8.616;2023-05-07T00:43:16;13.80;71.90
37678;DHT22;23517;50.390;8.616;2023-05-07T00:45:43;13.80;71.90
37678;DHT22;23517;50.390;8.616;2023-05-07T00:48:10;13.80;71.90
37678;DHT22;23517;50.390;8.616;2023-05-07T00:50:36;13.70;72.40
37678;DHT22;23517;50.390;8.616;2023-05-07T00:53:04;13.70;72.50
37678;DHT22;23517;50.390;8.616;2023-05-07T00:55:30;13.70;71.90
37678;DHT22;23517;50.390;8.616;2023-05-07T00:57:57;13.70;72.10
37678;DHT22;23517;50.390;8.616;2023-05-07T01:00:24;13.70;71.50
37678;DHT22;23517;50.390;8.616;2023-05-07T01:02:51;13.70;71.20
37678;DHT22;23517;50.390;8.616;2023-05-07T01:05:20;13.70;71.40
37678;DHT22;23517;50.390;8.616;2023-05-07T01:07:50;13.70;70.90
37678;DHT22;23517;50.390;8.616;2023-05-07T01:10:18;13.80;70.60
37678;DHT22;23517;50.390;8.616;2023-05-07T01:12:45;13.80;70.40
37678;DHT22;23517;50.390;8.616;2023-05-07T01:15:13;13.80;70.60
37678;DHT22;23517;50.390;8.616;2023-05-07T01:17:41;13.70;71.10
37678;DHT22;23517;50.390;8.616;2023-05-07T01:20:09;13.70;70.70
37678;DHT22;23517;50.390;8.616;2023-05-07T01:22:40;13.80;70.00
37678;DHT22;23517;50.390;8.616;2023-05-07T01:25:07;13.70;70.10
37678;DHT22;23517;50.390;8.616;2023-05-07T01:27:35;13.70;70.50
37678;DHT22;23517;50.390;8.616;2023-05-07T01:30:04;13.70;70.30
37678;DHT22;23517;50.390;8.616;2023-05-07T01:32:39;13.70;70.00
37678;DHT22;23517;50.390;8.616;2023-05-07T01:35:20;13.70;69.90
37678;DHT22;23517;50.390;8.616;2023-05-07T01:37:49;13.70;70.00
37678;DHT22;23517;50.390;8.616;2023-05-07T01:40:16;13.70;70.00
37678;DHT22;23517;50.390;8.616;2023-05-07T01:42:43;13.70;70.30
37678;DHT22;23517;50.390;8.616;2023-05-07T01:45:10;13.70;70.10
37678;DHT22;23517;50.390;8.616;2023-05-07T01:47:38;13.70;70.20
37678;DHT22;23517;50.390;8.616;2023-05-07T01:50:06;13.70;70.10
37678;DHT22;23517;50.390;8.616;2023-05-07T01:52:38;13.70;69.70
37678;DHT22;23517;50.390;8.616;2023-05-07T01:55:05;13.70;70.40
37678;DHT22;23517;50.390;8.616;2023-05-07T01:57:33;13.60;71.40
37678;DHT22;23517;50.390;8.616;2023-05-07T01:59:59;13.60;72.20
37678;DHT22;23517;50.390;8.616;2023-05-07T02:02:26;13.60;72.00
37678;DHT22;23517;50.390;8.616;2023-05-07T02:04:52;13.60;72.40
37678;DHT22;23517;50.390;8.616;2023-05-07T02:07:19;13.50;71.80
37678;DHT22;23517;50.390;8.616;2023-05-07T02:09:46;13.50;71.80
37678;DHT22;23517;50.390;8.616;2023-05-07T02:12:12;13.50;72.30
37678;DHT22;23517;50.390;8.616;2023-05-07T02:14:40;13.40;72.30
37678;DHT22;23517;50.390;8.616;2023-05-07T02:17:07;13.40;72.30
37678;DHT22;23517;50.390;8.616;2023-05-07T02:19:34;13.50;72.70
37678;DHT22;23517;50.390;8.616;2023-05-07T02:22:01;13.40;72.40
37678;DHT22;23517;50.390;8.616;2023-05-07T02:24:28;13.40;73.00
37678;DHT22;23517;50.390;8.616;2023-05-07T02:26:54;13.50;73.00
37678;DHT22;23517;50.390;8.616;2023-05-07T02:29:21;13.50;72.60
37678;DHT22;23517;50.390;8.616;2023-05-07T02:31:47;13.40;72.30
37678;DHT22;23517;50.390;8.616;2023-05-07T02:34:19;13.30;73.00
37678;DHT22;23517;50.390;8.616;2023-05-07T02:36:46;13.30;73.10
37678;DHT22;23517;50.390;8.616;2023-05-07T02:39:13;13.40;72.90
37678;DHT22;23517;50.390;8.616;2023-05-07T02:41:40;13.40;72.30
37678;DHT22;23517;50.390;8.616;2023-05-07T02:44:06;13.40;73.00
37678;DHT22;23517;50.390;8.616;2023-05-07T02:46:33;13.30;73.30
37678;DHT22;23517;50.390;8.616;2023-05-07T02:48:59;13.30;74.00
37678;DHT22;23517;50.390;8.616;2023-05-07T02:51:26;13.30;73.80
37678;DHT22;23517;50.390;8.616;2023-05-07T02:53:53;13.30;72.90
37678;DHT22;23517;50.390;8.616;2023-05-07T02:56:20;13.40;72.30
37678;DHT22;23517;50.390;8.616;2023-05-07T02:58:47;13.40;72.30
37678;DHT22;23517;50.390;8.616;2023-05-07T03:01:14;13.30;72.30
37678;DHT22;23517;50.390;8.616;2023-05-07T03:03:41;13.30;72.30
37678;DHT22;23517;50.390;8.616;2023-05-07T03:06:07;13.40;71.80
37678;DHT22;23517;50.390;8.616;2023-05-07T03:08:34;13.40;70.70
37678;DHT22;23517;50.390;8.616;2023-05-07T03:11:01;13.30;72.30
37678;DHT22;23517;50.390;8.616;2023-05-07T03:13:30;13.30;72.30
37678;DHT22;23517;50.390;8.616;2023-05-07T03:15:57;13.20;72.30
37678;DHT22;23517;50.390;8.616;2023-05-07T03:18:23;13.20;72.10
37678;DHT22;23517;50.390;8.616;2023-05-07T03:20:51;13.20;72.10
37678;DHT22;23517;50.390;8.616;2023-05-07T03:23:18;13.30;72.00
37678;DHT22;23517;50.390;8.616;2023-05-07T03:25:44;13.30;71.20
37678;DHT22;23517;50.390;8.616;2023-05-07T03:28:11;13.20;71.60
37678;DHT22;23517;50.390;8.616;2023-05-07T03:30:37;13.20;72.10
37678;DHT22;23517;50.390;8.616;2023-05-07T03:33:04;13.20;72.10
37678;DHT22;23517;50.390;8.616;2023-05-07T03:35:31;13.20;72.10
37678;DHT22;23517;50.390;8.616;2023-05-07T03:37:58;13.20;72.10
37678;DHT22;23517;50.390;8.616;2023-05-07T03:40:24;13.20;71.30
37678;DHT22;23517;50.390;8.616;2023-05-07T03:42:51;13.20;72.50
37678;DHT22;23517;50.390;8.616;2023-05-07T03:45:18;13.20;72.70
37678;DHT22;23517;50.390;8.616;2023-05-07T03:47:48;13.10;72.30
37678;DHT22;23517;50.390;8.616;2023-05-07T03:50:15;13.10;72.90
37678;DHT22;23517;50.390;8.616;2023-05-07T03:52:42;13.10;72.20
37678;DHT22;23517;50.390;8.616;2023-05-07T03:55:09;13.00;72.90
37678;DHT22;23517;50.390;8.616;2023-05-07T03:57:35;13.00;73.80
37678;DHT22;23517;50.390;8.616;2023-05-07T04:00:02;13.00;73.20
37678;DHT22;23517;50.390;8.616;2023-05-07T04:02:30;13.00;72.70
37678;DHT22;23517;50.390;8.616;2023-05-07T04:04:57;12.90;72.80
37678;DHT22;23517;50.390;8.616;2023-05-07T04:07:24;12.90;74.80
37678;DHT22;23517;50.390;8.616;2023-05-07T04:09:50;12.90;74.60
37678;DHT22;23517;50.390;8.616;2023-05-07T04:12:17;12.90;74.60
37678;DHT22;23517;50.390;8.616;2023-05-07T04:14:44;12.80;74.70
37678;DHT22;23517;50.390;8.616;2023-05-07T04:17:11;12.80;75.60
37678;DHT22;23517;50.390;8.616;2023-05-07T04:19:38;12.80;75.50
37678;DHT22;23517;50.390;8.616;2023-05-07T04:22:04;12.80;75.90
37678;DHT22;23517;50.390;8.616;2023-05-07T04:24:32;12.90;75.50
37678;DHT22;23517;50.390;8.616;2023-05-07T04:27:01;12.90;75.40
37678;DHT22;23517;50.390;8.616;2023-05-07T04:29:28;12.90;75.00
37678;DHT22;23517;50.390;8.616;2023-05-07T04:31:55;12.90;75.20
37678;DHT22;23517;50.390;8.616;2023-05-07T04:34:22;12.90;75.10
37678;DHT22;23517;50.390;8.616;2023-05-07T04:36:49;12.80;75.90
37678;DHT22;23517;50.390;8.616;2023-05-07T04:39:15;12.90;75.90
37678;DHT22;23517;50.390;8.616;2023-05-07T04:41:42;12.90;76.10
37678;DHT22;23517;50.390;8.616;2023-05-07T04:44:09;12.90;76.10
37678;DHT22;23517;50.390;8.616;2023-05-07T04:46:35;13.00;75.30
37678;DHT22;23517;50.390;8.616;2023-05-07T04:49:02;13.10;75.00
37678;DHT22;23517;50.390;8.616;2023-05-07T04:51:29;13.10;74.30
37678;DHT22;23517;50.390;8.616;2023-05-07T04:53:56;13.10;74.20
37678;DHT22;23517;50.390;8.616;2023-05-07T04:56:23;13.10;74.10
37678;DHT22;23517;50.390;8.616;2023-05-07T04:58:49;13.10;73.70
37678;DHT22;23517;50.390;8.616;2023-05-07T05:01:16;13.10;73.80
37678;DHT22;23517;50.390;8.616;2023-05-07T05:03:43;13.10;74.20
37678;DHT22;23517;50.390;8.616;2023-05-07T05:06:10;13.20;73.70
37678;DHT22;23517;50.390;8.616;2023-05-07T05:08:36;13.20;73.50
37678;DHT22;23517;50.390;8.616;2023-05-07T05:11:04;13.20;73.20
37678;DHT22;23517;50.390;8.616;2023-05-07T05:13:30;13.20;73.30
37678;DHT22;23517;50.390;8.616;2023-05-07T05:15:57;13.40;72.30
37678;DHT22;23517;50.390;8.616;2023-05-07T05:18:24;13.50;71.80
37678;DHT22;23517;50.390;8.616;2023-05-07T05:20:51;13.70;69.10
37678;DHT22;23517;50.390;8.616;2023-05-07T05:23:18;13.70;69.90
37678;DHT22;23517;50.390;8.616;2023-05-07T05:25:45;13.80;68.40
37678;DHT22;23517;50.390;8.616;2023-05-07T05:28:12;13.80;68.00
37678;DHT22;23517;50.390;8.616;2023-05-07T05:30:39;13.80;68.20
37678;DHT22;23517;50.390;8.616;2023-05-07T05:33:06;13.90;67.70
37678;DHT22;23517;50.390;8.616;2023-05-07T05:35:33;14.00;68.00
37678;DHT22;23517;50.390;8.616;2023-05-07T05:38:01;14.00;68.00
37678;DHT22;23517;50.390;8.616;2023-05-07T05:40:28;14.00;68.00
37678;DHT22;23517;50.390;8.616;2023-05-07T05:42:55;14.00;68.80
37678;DHT22;23517;50.390;8.616;2023-05-07T05:45:22;13.90;68.70
37678;DHT22;23517;50.390;8.616;2023-05-07T05:47:48;14.00;68.60
37678;DHT22;23517;50.390;8.616;2023-05-07T05:50:15;14.10;69.00
37678;DHT22;23517;50.390;8.616;2023-05-07T05:52:45;14.20;67.80
37678;DHT22;23517;50.390;8.616;2023-05-07T05:55:11;14.30;67.70
37678;DHT22;23517;50.390;8.616;2023-05-07T05:57:38;14.50;66.50
37678;DHT22;23517;50.390;8.616;2023-05-07T06:00:05;14.80;61.50
37678;DHT22;23517;50.390;8.616;2023-05-07T06:02:32;15.10;59.00
37678;DHT22;23517;50.390;8.616;2023-05-07T06:04:59;15.30;58.40
37678;DHT22;23517;50.390;8.616;2023-05-07T06:07:26;15.60;56.90
37678;DHT22;23517;50.390;8.616;2023-05-07T06:09:53;15.80;56.10
37678;DHT22;23517;50.390;8.616;2023-05-07T06:12:20;16.00;55.30
37678;DHT22;23517;50.390;8.616;2023-05-07T06:14:47;16.10;55.40
37678;DHT22;23517;50.390;8.616;2023-05-07T06:17:13;16.00;55.50
37678;DHT22;23517;50.390;8.616;2023-05-07T06:19:40;16.10;55.40
37678;DHT22;23517;50.390;8.616;2023-05-07T06:22:07;16.10;55.40
37678;DHT22;23517;50.390;8.616;2023-05-07T06:24:35;16.10;54.80
37678;DHT22;23517;50.390;8.616;2023-05-07T06:27:02;16.10;55.40
37678;DHT22;23517;50.390;8.616;2023-05-07T06:29:29;16.10;55.80
37678;DHT22;23517;50.390;8.616;2023-05-07T06:32:06;16.10;56.20
37678;DHT22;23517;50.390;8.616;2023-05-07T06:34:34;16.10;56.00
37678;DHT22;23517;50.390;8.616;2023-05-07T06:37:01;16.20;54.10
37678;DHT22;23517;50.390;8.616;2023-05-07T06:39:28;16.50;52.30
37678;DHT22;23517;50.390;8.616;2023-05-07T06:41:55;16.90;50.20
37678;DHT22;23517;50.390;8.616;2023-05-07T06:44:22;17.20;49.90
37678;DHT22;23517;50.390;8.616;2023-05-07T06:46:48;17.80;45.90
37678;DHT22;23517;50.390;8.616;2023-05-07T06:49:15;18.40;43.40
37678;DHT22;23517;50.390;8.616;2023-05-07T06:51:42;19.20;40.40
37678;DHT22;23517;50.390;8.616;2023-05-07T06:54:08;19.80;36.10
37678;DHT22;23517;50.390;8.616;2023-05-07T06:56:35;20.50;33.70
37678;DHT22;23517;50.390;8.616;2023-05-07T06:59:02;20.30;33.70
37678;DHT22;23517;50.390;8.616;2023-05-07T07:01:29;20.70;31.90
37678;DHT22;23517;50.390;8.616;2023-05-07T07:03:56;20.80;31.60
37678;DHT22;23517;50.390;8.616;2023-05-07T07:06:22;21.10;31.00
37678;DHT22;23517;50.390;8.616;2023-05-07T07:08:49;20.90;30.30
37678;DHT22;23517;50.390;8.616;2023-05-07T07:11:16;20.70;31.00
37678;DHT22;23517;50.390;8.616;2023-05-07T07:13:43;20.20;31.50
37678;DHT22;23517;50.390;8.616;2023-05-07T07:16:09;19.70;33.50
37678;DHT22;23517;50.390;8.616;2023-05-07T07:18:36;19.70;34.40
37678;DHT22;23517;50.390;8.616;2023-05-07T07:21:03;19.80;34.50
37678;DHT22;23517;50.390;8.616;2023-05-07T07:23:30;19.80;34.00
37678;DHT22;23517;50.390;8.616;2023-05-07T07:25:56;19.50;35.60
37678;DHT22;23517;50.390;8.616;2023-05-07T07:28:23;19.90;34.90
37678;DHT22;23517;50.390;8.616;2023-05-07T07:30:50;19.90;33.40
37678;DHT22;23517;50.390;8.616;2023-05-07T07:33:16;19.80;33.90
37678;DHT22;23517;50.390;8.616;2023-05-07T07:35:43;19.90;34.70
37678;DHT22;23517;50.390;8.616;2023-05-07T07:38:10;19.40;34.60
37678;DHT22;23517;50.390;8.616;2023-05-07T07:40:36;19.30;34.80
37678;DHT22;23517;50.390;8.616;2023-05-07T07:43:03;19.60;34.60
37678;DHT22;23517;50.390;8.616;2023-05-07T07:45:31;19.50;34.70
37678;DHT22;23517;50.390;8.616;2023-05-07T07:47:57;19.20;34.60
37678;DHT22;23517;50.390;8.616;2023-05-07T07:50:24;19.30;36.80
37678;DHT22;23517;50.390;8.616;2023-05-07T07:52:57;19.30;33.00
37678;DHT22;23517;50.390;8.616;2023-05-07T07:55:24;19.50;29.20
37678;DHT22;23517;50.390;8.616;2023-05-07T07:57:50;19.30;32.80
37678;DHT22;23517;50.390;8.616;2023-05-07T08:00:17;18.90;34.90
37678;DHT22;23517;50.390;8.616;2023-05-07T08:02:44;18.90;35.20
37678;DHT22;23517;50.390;8.616;2023-05-07T08:05:11;19.10;34.50
37678;DHT22;23517;50.390;8.616;2023-05-07T08:07:37;19.00;35.40
37678;DHT22;23517;50.390;8.616;2023-05-07T08:10:04;19.20;35.70
37678;DHT22;23517;50.390;8.616;2023-05-07T08:12:31;19.20;36.50
37678;DHT22;23517;50.390;8.616;2023-05-07T08:14:57;19.40;35.00
37678;DHT22;23517;50.390;8.616;2023-05-07T08:17:24;19.40;35.30
37678;DHT22;23517;50.390;8.616;2023-05-07T08:19:51;19.70;34.30
37678;DHT22;23517;50.390;8.616;2023-05-07T08:22:18;19.80;34.80
37678;DHT22;23517;50.390;8.616;2023-05-07T08:24:44;19.70;34.70
37678;DHT22;23517;50.390;8.616;2023-05-07T08:27:11;19.60;33.20
37678;DHT22;23517;50.390;8.616;2023-05-07T08:29:38;19.70;33.20
37678;DHT22;23517;50.390;8.616;2023-05-07T08:32:04;19.90;32.90
37678;DHT22;23517;50.390;8.616;2023-05-07T08:34:31;20.00;33.20
37678;DHT22;23517;50.390;8.616;2023-05-07T08:36:58;19.80;32.60
37678;DHT22;23517;50.390;8.616;2023-05-07T08:39:24;20.10;32.50
37678;DHT22;23517;50.390;8.616;2023-05-07T08:41:55;20.10;32.70
37678;DHT22;23517;50.390;8.616;2023-05-07T08:44:26;20.10;32.20
37678;DHT22;23517;50.390;8.616;2023-05-07T08:46:56;20.20;31.70
37678;DHT22;23517;50.390;8.616;2023-05-07T08:49:24;20.60;31.10
37678;DHT22;23517;50.390;8.616;2023-05-07T08:51:51;21.10;30.20
37678;DHT22;23517;50.390;8.616;2023-05-07T08:54:18;21.50;30.00
37678;DHT22;23517;50.390;8.616;2023-05-07T08:56:46;21.70;28.90
37678;DHT22;23517;50.390;8.616;2023-05-07T08:59:12;21.80;29.40
37678;DHT22;23517;50.390;8.616;2023-05-07T09:01:39;22.80;26.90
37678;DHT22;23517;50.390;8.616;2023-05-07T09:04:06;23.80;25.40
37678;DHT22;23517;50.390;8.616;2023-05-07T09:06:33;24.60;23.30
37678;DHT22;23517;50.390;8.616;2023-05-07T09:09:01;25.20;21.00
37678;DHT22;23517;50.390;8.616;2023-05-07T09:11:28;25.30;20.60
37678;DHT22;23517;50.390;8.616;2023-05-07T09:18:54;25.90;18.90
37678;DHT22;23517;50.390;8.616;2023-05-07T09:21:21;26.60;19.10
37678;DHT22;23517;50.390;8.616;2023-05-07T09:23:53;26.90;18.40
37678;DHT22;23517;50.390;8.616;2023-05-07T09:26:22;26.30;18.90
37678;DHT22;23517;50.390;8.616;2023-05-07T09:28:49;26.50;18.30
37678;DHT22;23517;50.390;8.616;2023-05-07T09:31:18;27.10;17.80
37678;DHT22;23517;50.390;8.616;2023-05-07T09:33:47;27.30;17.50
37678;DHT22;23517;50.390;8.616;2023-05-07T09:36:13;27.70;17.10
37678;DHT22;23517;50.390;8.616;2023-05-07T09:38:40;27.30;18.00
37678;DHT22;23517;50.390;8.616;2023-05-07T09:41:13;26.30;18.60
37678;DHT22;23517;50.390;8.616;2023-05-07T09:43:40;24.70;20.60
37678;DHT22;23517;50.390;8.616;2023-05-07T09:46:12;23.70;65.10
37678;DHT22;23517;50.390;8.616;2023-05-07T09:48:42;23.70;51.20
37678;DHT22;23517;50.390;8.616;2023-05-07T09:51:24;24.40;49.80
37678;DHT22;23517;50.390;8.616;2023-05-07T09:53:53;25.30;21.30
37678;DHT22;23517;50.390;8.616;2023-05-07T09:58:48;26.30;18.10
37678;DHT22;23517;50.390;8.616;2023-05-07T10:01:17;26.40;18.20
37678;DHT22;23517;50.390;8.616;2023-05-07T10:03:45;26.30;18.70
37678;DHT22;23517;50.390;8.616;2023-05-07T10:06:13;26.40;18.60
37678;DHT22;23517;50.390;8.616;2023-05-07T10:08:42;26.00;18.90
37678;DHT22;23517;50.390;8.616;2023-05-07T10:11:09;25.90;19.20
37678;DHT22;23517;50.390;8.616;2023-05-07T10:13:36;25.30;20.10
37678;DHT22;23517;50.390;8.616;2023-05-07T10:16:04;25.30;20.20
37678;DHT22;23517;50.390;8.616;2023-05-07T10:18:32;24.50;22.20
37678;DHT22;23517;50.390;8.616;2023-05-07T10:21:08;24.10;22.70
37678;DHT22;23517;50.390;8.616;2023-05-07T10:23:38;23.40;25.30
37678;DHT22;23517;50.390;8.616;2023-05-07T10:26:07;22.90;26.30
37678;DHT22;23517;50.390;8.616;2023-05-07T10:28:38;22.50;40.10
37678;DHT22;23517;50.390;8.616;2023-05-07T10:34:40;21.90;29.00
37678;DHT22;23517;50.390;8.616;2023-05-07T10:37:10;22.10;29.20
37678;DHT22;23517;50.390;8.616;2023-05-07T10:39:37;22.00;29.50
37678;DHT22;23517;50.390;8.616;2023-05-07T10:42:11;22.10;29.60
37678;DHT22;23517;50.390;8.616;2023-05-07T10:44:39;22.20;28.90
37678;DHT22;23517;50.390;8.616;2023-05-07T10:47:10;22.00;29.60
37678;DHT22;23517;50.390;8.616;2023-05-07T10:52:32;21.90;28.60
37678;DHT22;23517;50.390;8.616;2023-05-07T10:57:45;21.60;30.90
37678;DHT22;23517;50.390;8.616;2023-05-07T11:03:05;21.90;29.10
37678;DHT22;23517;50.390;8.616;2023-05-07T11:05:33;21.90;29.80
37678;DHT22;23517;50.390;8.616;2023-05-07T11:08:04;21.80;30.00
37678;DHT22;23517;50.390;8.616;2023-05-07T11:10:54;22.00;29.30
37678;DHT22;23517;50.390;8.616;2023-05-07T11:13:42;21.90;29.00
37678;DHT22;23517;50.390;8.616;2023-05-07T11:16:20;22.00;28.90
37678;DHT22;23517;50.390;8.616;2023-05-07T11:18:54;21.80;29.90
37678;DHT22;23517;50.390;8.616;2023-05-07T11:21:39;21.60;30.10
37678;DHT22;23517;50.390;8.616;2023-05-07T11:24:08;21.80;30.10
37678;DHT22;23517;50.390;8.616;2023-05-07T11:29:16;21.90;30.20
37678;DHT22;23517;50.390;8.616;2023-05-07T11:31:52;21.90;29.00
37678;DHT22;23517;50.390;8.616;2023-05-07T11:34:24;21.90;28.70
37678;DHT22;23517;50.390;8.616;2023-05-07T11:36:52;21.80;29.60
37678;DHT22;23517;50.390;8.616;2023-05-07T11:39:29;22.00;29.60
37678;DHT22;23517;50.390;8.616;2023-05-07T11:42:00;22.30;28.60
37678;DHT22;23517;50.390;8.616;2023-05-07T11:44:43;22.50;27.80
37678;DHT22;23517;50.390;8.616;2023-05-07T11:47:17;22.60;27.90
37678;DHT22;23517;50.390;8.616;2023-05-07T11:49:49;22.80;26.80
37678;DHT22;23517;50.390;8.616;2023-05-07T11:52:18;22.60;27.10
37678;DHT22;23517;50.390;8.616;2023-05-07T11:54:56;22.70;27.40
37678;DHT22;23517;50.390;8.616;2023-05-07T11:57:24;22.80;26.40
37678;DHT22;23517;50.390;8.616;2023-05-07T11:59:55;22.60;27.20
37678;DHT22;23517;50.390;8.616;2023-05-07T12:02:23;22.30;27.70
37678;DHT22;23517;50.390;8.616;2023-05-07T12:04:52;22.40;28.00
37678;DHT22;23517;50.390;8.616;2023-05-07T12:07:19;22.50;28.30
37678;DHT22;23517;50.390;8.616;2023-05-07T12:09:46;22.60;26.80
37678;DHT22;23517;50.390;8.616;2023-05-07T12:12:14;22.50;27.70
37678;DHT22;23517;50.390;8.616;2023-05-07T12:14:43;22.40;28.00
37678;DHT22;23517;50.390;8.616;2023-05-07T12:17:12;22.20;28.50
37678;DHT22;23517;50.390;8.616;2023-05-07T12:19:41;22.10;27.90
37678;DHT22;23517;50.390;8.616;2023-05-07T12:22:10;22.10;28.70
37678;DHT22;23517;50.390;8.616;2023-05-07T12:24:50;22.20;29.50
37678;DHT22;23517;50.390;8.616;2023-05-07T12:27:24;22.00;28.50
37678;DHT22;23517;50.390;8.616;2023-05-07T12:29:51;22.10;28.10
37678;DHT22;23517;50.390;8.616;2023-05-07T12:32:20;22.10;28.30
37678;DHT22;23517;50.390;8.616;2023-05-07T12:34:51;21.80;29.10
37678;DHT22;23517;50.390;8.616;2023-05-07T12:37:23;21.80;13.40
37678;DHT22;23517;50.390;8.616;2023-05-07T12:40:09;21.90;30.10
37678;DHT22;23517;50.390;8.616;2023-05-07T12:42:39;21.90;30.20
37678;DHT22;23517;50.390;8.616;2023-05-07T12:45:12;22.10;12.20
37678;DHT22;23517;50.390;8.616;2023-05-07T12:47:47;22.10;29.80
37678;DHT22;23517;50.390;8.616;2023-05-07T12:50:15;22.30;29.50
37678;DHT22;23517;50.390;8.616;2023-05-07T12:52:43;22.30;29.30
37678;DHT22;23517;50.390;8.616;2023-05-07T12:55:14;22.50;25.20
37678;DHT22;23517;50.390;8.616;2023-05-07T12:57:43;22.60;28.40
37678;DHT22;23517;50.390;8.616;2023-05-07T13:00:12;22.70;26.20
37678;DHT22;23517;50.390;8.616;2023-05-07T13:02:41;22.60;25.00
37678;DHT22;23517;50.390;8.616;2023-05-07T13:05:10;22.70;26.40
37678;DHT22;23517;50.390;8.616;2023-05-07T13:07:39;22.90;25.40
37678;DHT22;23517;50.390;8.616;2023-05-07T13:10:07;22.90;25.80
37678;DHT22;23517;50.390;8.616;2023-05-07T13:12:34;23.00;25.10
37678;DHT22;23517;50.390;8.616;2023-05-07T13:15:01;23.00;24.80
37678;DHT22;23517;50.390;8.616;2023-05-07T13:17:28;23.00;23.10
37678;DHT22;23517;50.390;8.616;2023-05-07T13:19:54;23.00;25.10
37678;DHT22;23517;50.390;8.616;2023-05-07T13:22:21;23.20;25.80
37678;DHT22;23517;50.390;8.616;2023-05-07T13:24:48;23.10;25.90
37678;DHT22;23517;50.390;8.616;2023-05-07T13:27:14;23.20;26.40
37678;DHT22;23517;50.390;8.616;2023-05-07T13:29:41;23.30;24.30
37678;DHT22;23517;50.390;8.616;2023-05-07T13:32:08;23.00;22.20
37678;DHT22;23517;50.390;8.616;2023-05-07T13:34:34;22.90;23.20
37678;DHT22;23517;50.390;8.616;2023-05-07T13:37:01;23.10;24.10
37678;DHT22;23517;50.390;8.616;2023-05-07T13:39:28;22.90;24.30
37678;DHT22;23517;50.390;8.616;2023-05-07T13:41:54;22.90;25.80
37678;DHT22;23517;50.390;8.616;2023-05-07T13:44:21;22.70;25.00
37678;DHT22;23517;50.390;8.616;2023-05-07T13:46:48;22.60;24.90
37678;DHT22;23517;50.390;8.616;2023-05-07T13:49:14;22.60;26.00
37678;DHT22;23517;50.390;8.616;2023-05-07T13:51:41;22.60;24.50
37678;DHT22;23517;50.390;8.616;2023-05-07T13:54:08;22.50;24.10
37678;DHT22;23517;50.390;8.616;2023-05-07T13:56:35;22.70;25.00
37678;DHT22;23517;50.390;8.616;2023-05-07T13:59:01;22.60;25.30
37678;DHT22;23517;50.390;8.616;2023-05-07T14:01:28;22.50;26.80
37678;DHT22;23517;50.390;8.616;2023-05-07T14:03:56;22.60;26.20
37678;DHT22;23517;50.390;8.616;2023-05-07T14:06:24;22.70;25.00
37678;DHT22;23517;50.390;8.616;2023-05-07T14:08:51;23.00;25.00
37678;DHT22;23517;50.390;8.616;2023-05-07T14:11:18;23.00;23.80
37678;DHT22;23517;50.390;8.616;2023-05-07T14:13:44;23.00;24.10
37678;DHT22;23517;50.390;8.616;2023-05-07T14:16:11;22.90;23.90
37678;DHT22;23517;50.390;8.616;2023-05-07T14:18:38;22.90;24.30
37678;DHT22;23517;50.390;8.616;2023-05-07T14:21:05;22.90;22.80
37678;DHT22;23517;50.390;8.616;2023-05-07T14:23:32;22.90;22.30
37678;DHT22;23517;50.390;8.616;2023-05-07T14:25:59;23.00;22.20
37678;DHT22;23517;50.390;8.616;2023-05-07T14:28:25;22.80;22.90
37678;DHT22;23517;50.390;8.616;2023-05-07T14:30:52;22.80;22.60
37678;DHT22;23517;50.390;8.616;2023-05-07T14:33:19;22.90;22.20
37678;DHT22;23517;50.390;8.616;2023-05-07T14:35:49;22.90;22.30
37678;DHT22;23517;50.390;8.616;2023-05-07T14:38:16;22.90;23.00
37678;DHT22;23517;50.390;8.616;2023-05-07T14:40:43;22.80;23.10
37678;DHT22;23517;50.390;8.616;2023-05-07T14:43:13;22.70;22.50
37678;DHT22;23517;50.390;8.616;2023-05-07T14:45:41;22.70;22.50
37678;DHT22;23517;50.390;8.616;2023-05-07T14:48:07;22.70;23.50
37678;DHT22;23517;50.390;8.616;2023-05-07T14:50:35;22.60;24.00
37678;DHT22;23517;50.390;8.616;2023-05-07T14:53:02;22.60;24.10
37678;DHT22;23517;50.390;8.616;2023-05-07T14:55:29;22.50;25.30
37678;DHT22;23517;50.390;8.616;2023-05-07T14:57:55;22.50;25.60
37678;DHT22;23517;50.390;8.616;2023-05-07T15:00:22;22.50;25.80
37678;DHT22;23517;50.390;8.616;2023-05-07T15:02:49;22.50;24.40
37678;DHT22;23517;50.390;8.616;2023-05-07T15:05:16;22.50;24.90
37678;DHT22;23517;50.390;8.616;2023-05-07T15:07:43;22.60;23.90
37678;DHT22;23517;50.390;8.616;2023-05-07T15:10:11;22.60;23.60
37678;DHT22;23517;50.390;8.616;2023-05-07T15:12:38;22.60;24.10
37678;DHT22;23517;50.390;8.616;2023-05-07T15:15:05;22.50;24.90
37678;DHT22;23517;50.390;8.616;2023-05-07T15:17:33;22.50;24.40
37678;DHT22;23517;50.390;8.616;2023-05-07T15:19:59;22.40;23.70
37678;DHT22;23517;50.390;8.616;2023-05-07T15:22:26;22.50;23.60
37678;DHT22;23517;50.390;8.616;2023-05-07T15:24:53;22.50;24.50
37678;DHT22;23517;50.390;8.616;2023-05-07T15:27:21;22.50;23.70
37678;DHT22;23517;50.390;8.616;2023-05-07T15:29:48;22.50;23.90
37678;DHT22;23517;50.390;8.616;2023-05-07T15:32:15;22.50;23.80
37678;DHT22;23517;50.390;8.616;2023-05-07T15:34:41;22.50;24.60
37678;DHT22;23517;50.390;8.616;2023-05-07T15:37:08;22.50;23.60
37678;DHT22;23517;50.390;8.616;2023-05-07T15:39:35;22.50;23.50
37678;DHT22;23517;50.390;8.616;2023-05-07T15:42:02;22.50;23.00
37678;DHT22;23517;50.390;8.616;2023-05-07T15:44:29;22.40;23.40
37678;DHT22;23517;50.390;8.616;2023-05-07T15:47:01;22.40;23.30
37678;DHT22;23517;50.390;8.616;2023-05-07T15:49:27;22.40;23.60
37678;DHT22;23517;50.390;8.616;2023-05-07T15:51:54;22.30;23.60
37678;DHT22;23517;50.390;8.616;2023-05-07T15:54:21;22.40;23.60
37678;DHT22;23517;50.390;8.616;2023-05-07T15:56:49;22.30;23.60